Aérodrome :
LOGIN :

S'inscrire | Disclaimer

   EN    FR    IT 

 










Légende :    VFR   VFR Marginal   IFR   IFR Intensif   IFR Très Intensif
Visi : 
Plafond : 
>= 8 km
>= 3000ft
5 à 8 km
1000 à 3000 ft
1500m à 5 km
500 à 1000 ft
800 à 1500m
200 à 500 ft
< 800m
< 200 ft
Symboles :   Orages  Brouillard  Fortes neiges  Fortes précipitations  Vent > 20 kt
SIGMETs :   Divers  Orages  Givrage  Turbulence  Onde Orograph.  Cendres Volcan.






- Altitude de l'aérodrome : 13 ft
- Code IATA : OST


EBOS - Oostend bruges Int.

DERNIER METAR :
  • 090950Z 23010KT 9999 FEW014 BKN020 05/04 Q1003 TEMPO BKN012

METARs EXPIRÉS :
  • 090920Z 23009KT 6000 -SHRA FEW005 BKN014 05/04 Q1003 TEMPO SCT012 BKN020
  • 090850Z 22007KT 9999 -SHRA SCT005 BKN021 05/04 Q1002 TEMPO BKN012
  • 090820Z 23007KT 9999 FEW011 SCT014 BKN018 04/03 Q1002 TEMPO BKN012
  • 090750Z 21007KT 190V260 9999 FEW015 BKN020 04/03 Q1002 TEMPO BKN012
  • 090720Z 21008KT 9000 SCT017 BKN024 04/03 Q1002 TEMPO BKN012

TAF TAF EBOS
Valide du 09 à 06h jusqu'au 10 à 12h UTC


090510Z 0906/1012 22010KT 9999 SCT012 BKN030
TEMPO 0906/0914 BKN012
BECMG 0921/0923 16013KT
PROB40
TEMPO 1000/1009 4000 RA SCT008 BKN012
BECMG 1003/1006 29015G27KT
BECMG 1006/1009 31025G37KT



MET'MAP, la Météo Aéronautique d'un coup d'oeil ! - Copyright ORBIFLY Décembre 2007 - Disclaimer

ORBIFLY MET'MAP TEAM :

Programmation & Développement : Alexandra Zaïnal
Sur une idée originale de : Baudouin d'Aumeries
Assistance à la programmation : Marc-Olivier Méhu
Soutien technique & logistique : Manuel Goepfert

Contact : metmap@orbifly.com




SOURCES & CREDITS :

   NOAA